Station Historical Data
Daily Summary for November 3, 2017 Units:  Metric    English   Both
« Previous Day
Next Day »
Daily Weekly Monthly Yearly Custom
  High: Low: Average:
Temperature: 17.7 °C 2.8 °C 10.4 °C
Dew Point: 13.6 °C -0.3 °C 6.8 °C
Humidity: 92% 60% 79%
Wind Speed: 16.1km/h 0km/h 3.9km/h
Wind Gust: 25.7km/h - -
Wind- - WNW
Pressure: 1028 hPa 1012.8 hPa -
Precipitation: 0 mm    
Historical Graphs
 
 
Tabular Data for November 3, 2017
Time Temperature Dew Point Pressure Wind Wind Speed Wind Gust Humidity Rainfall Rate (Hourly)
00:04 17.7 °C 12.6 °C 1013.4 hPa SW 3.2 km/h 22.5 km/h 72% 0 mm
00:09 17.6 °C 12.5 °C 1013.4 hPa WSW 8 km/h 17.7 km/h 72% 0 mm
00:14 17.7 °C 12.6 °C 1013.4 hPa SSE 8 km/h 14.5 km/h 72% 0 mm
00:19 17.7 °C 12.6 °C 1013.4 hPa SW 8 km/h 16.1 km/h 72% 0 mm
00:24 17.7 °C 12.6 °C 1013.1 hPa SSW 8 km/h 16.1 km/h 72% 0 mm
00:29 17.7 °C 12.6 °C 1013.1 hPa SSW 8 km/h 19.3 km/h 72% 0 mm
00:34 17.6 °C 12.5 °C 1013.1 hPa SSW 8 km/h 19.3 km/h 72% 0 mm
00:39 17.7 °C 12.6 °C 1013.1 hPa SW 8 km/h 19.3 km/h 72% 0 mm
00:49 17.7 °C 12.6 °C 1013.1 hPa SW 4.8 km/h 17.7 km/h 72% 0 mm
00:54 17.7 °C 12.6 °C 1013.1 hPa SW 6.4 km/h 17.7 km/h 72% 0 mm
00:59 17.6 °C 12.5 °C 1012.8 hPa WSW 8 km/h 16.1 km/h 72% 0 mm
01:04 17.7 °C 12.6 °C 1012.8 hPa SW 6.4 km/h 16.1 km/h 72% 0 mm
01:09 17.6 °C 12.5 °C 1012.8 hPa South 6.4 km/h 17.7 km/h 72% 0 mm
01:14 17.6 °C 12.5 °C 1012.8 hPa South 4.8 km/h 14.5 km/h 72% 0 mm
01:19 17.7 °C 12.6 °C 1012.8 hPa SSW 3.2 km/h 16.1 km/h 72% 0 mm
01:24 17.6 °C 12.9 °C 1012.8 hPa SSW 4.8 km/h 16.1 km/h 74% 0 mm
01:29 17.4 °C 12.9 °C 1012.8 hPa SW 4.8 km/h 9.7 km/h 75% 0.25 mm
01:34 17.1 °C 13.1 °C 1013.1 hPa SW 6.4 km/h 16.1 km/h 77% 0.76 mm
01:39 16.8 °C 13.2 °C 1013.1 hPa SW 8 km/h 19.3 km/h 79% 1.27 mm
01:44 16.5 °C 13.2 °C 1013.1 hPa SW 9.7 km/h 24.1 km/h 81% 2.03 mm
01:49 16.2 °C 13.3 °C 1013.4 hPa SW 9.7 km/h 19.3 km/h 83% 2.54 mm
01:54 16 °C 13.3 °C 1013.4 hPa WSW 6.4 km/h 14.5 km/h 84% 3.05 mm
01:59 15.8 °C 13.3 °C 1013.4 hPa WSW 8 km/h 20.9 km/h 85% 3.56 mm
02:04 15.7 °C 13.3 °C 1013.4 hPa WSW 6.4 km/h 20.9 km/h 86% 4.32 mm
02:09 15.6 °C 13.4 °C 1013.1 hPa WSW 6.4 km/h 17.7 km/h 87% 4.83 mm
02:14 15.5 °C 13.3 °C 1013.4 hPa SW 8 km/h 14.5 km/h 87% 5.33 mm
02:19 15.4 °C 13.4 °C 1013.1 hPa WSW 6.4 km/h 16.1 km/h 88% 5.84 mm
02:24 15.4 °C 13.4 °C 1013.4 hPa WSW 8 km/h 17.7 km/h 88% 6.35 mm
02:29 15.3 °C 13.6 °C 1013.1 hPa WSW 6.4 km/h 17.7 km/h 89% 6.6 mm
02:34 15.2 °C 13.4 °C 1013.4 hPa WSW 8 km/h 17.7 km/h 89% 6.6 mm
02:39 15.2 °C 13.4 °C 1013.4 hPa WSW 8 km/h 17.7 km/h 89% 6.35 mm
02:44 15.1 °C 13.3 °C 1013.4 hPa SW 14.5 km/h 16.1 km/h 89% 6.1 mm
02:49 14.9 °C 13.2 °C 1013.4 hPa SW 1.6 km/h 16.1 km/h 89% 5.84 mm
02:54 14.8 °C 13.2 °C 1013.4 hPa SSW 3.2 km/h 12.9 km/h 90% 5.59 mm
02:59 14.8 °C 13.2 °C 1013.4 hPa WSW 4.8 km/h 9.7 km/h 90% 5.08 mm
03:04 14.7 °C 13.1 °C 1013.4 hPa WSW 4.8 km/h 9.7 km/h 90% 4.57 mm
03:09 14.6 °C 13 °C 1013.8 hPa WNW 3.2 km/h 17.7 km/h 90% 4.32 mm
03:14 14.3 °C 12.7 °C 1013.4 hPa NW 1.6 km/h 6.4 km/h 90% 4.06 mm
03:19 14.1 °C 12.5 °C 1013.4 hPa Calm   1.6 km/h 90% 3.81 mm
03:24 14 °C 12.4 °C 1013.4 hPa Calm     90% 3.3 mm
03:29 13.8 °C 12.2 °C 1013.4 hPa Calm   4.8 km/h 90% 2.79 mm
03:34 13.6 °C 12 °C 1013.4 hPa Calm   4.8 km/h 90% 2.29 mm
03:39 13.6 °C 11.9 °C 1013.4 hPa Calm     90% 2.29 mm
03:44 13.4 °C 12 °C 1013.1 hPa Calm     91% 1.78 mm
03:49 13.4 °C 11.9 °C 1013.1 hPa Calm     91% 1.78 mm
03:54 13.3 °C 11.9 °C 1013.1 hPa Calm     91% 1.52 mm
03:59 13.4 °C 11.9 °C 1013.1 hPa Calm     91% 1.52 mm
04:04 13.3 °C 11.9 °C 1013.1 hPa Calm     91% 1.27 mm
04:09 13.3 °C 11.9 °C 1013.1 hPa Calm     91% 1.02 mm
04:14 13.3 °C 11.8 °C 1013.4 hPa Calm   3.2 km/h 91% 0.76 mm
04:19 13.3 °C 11.8 °C 1013.8 hPa Calm   3.2 km/h 91% 0.51 mm
04:24 13.3 °C 11.8 °C 1014.1 hPa NW 4.8 km/h 8 km/h 91% 0.51 mm
04:29 13.1 °C 11.7 °C 1014.4 hPa WNW 6.4 km/h 8 km/h 91% 0.51 mm
04:34 12.9 °C 11.5 °C 1014.4 hPa NW 1.6 km/h 11.3 km/h 91% 0.76 mm
04:39 12.7 °C 11.3 °C 1014.4 hPa North 3.2 km/h 9.7 km/h 91% 0.51 mm
04:44 12.6 °C 11.1 °C 1014.1 hPa NNW 3.2 km/h 9.7 km/h 91% 0.51 mm
04:49 12.4 °C 11 °C 1014.4 hPa North 3.2 km/h 9.7 km/h 91% 0.25 mm
04:54 12.3 °C 10.9 °C 1014.4 hPa NNW 1.6 km/h 6.4 km/h 91% 0.25 mm
04:59 12.3 °C 10.8 °C 1014.1 hPa NNW 1.6 km/h 4.8 km/h 91% 0.51 mm
05:04 12.3 °C 10.8 °C 1014.1 hPa Calm   8 km/h 91% 0.51 mm
05:09 12.2 °C 10.8 °C 1014.1 hPa NNW 3.2 km/h 12.9 km/h 91% 0.51 mm
05:14 12.2 °C 10.7 °C 1014.4 hPa North 3.2 km/h 11.3 km/h 91% 0.51 mm
05:19 12.1 °C 10.8 °C 1014.4 hPa NNW 3.2 km/h 11.3 km/h 92% 0.51 mm
05:24 12 °C 10.6 °C 1014.8 hPa NNW 1.6 km/h 12.9 km/h 91% 0.51 mm
05:29 12 °C 10.6 °C 1015.1 hPa North 4.8 km/h 11.3 km/h 91% 0.51 mm
05:34 11.9 °C 10.4 °C 1015.1 hPa NNE 1.6 km/h 11.3 km/h 91% 0.25 mm
05:39 11.8 °C 10.3 °C 1014.8 hPa North 3.2 km/h 12.9 km/h 91% 0.51 mm
05:44 11.7 °C 10.2 °C 1015.1 hPa NNW 1.6 km/h 11.3 km/h 91% 0.76 mm
05:54 11.4 °C 10 °C 1015.1 hPa NNW 1.6 km/h 4.8 km/h 91% 1.52 mm
05:59 11.4 °C 10.1 °C 1015.1 hPa Calm   4.8 km/h 92% 1.52 mm
06:04 11.4 °C 10.1 °C 1015.5 hPa Calm   3.2 km/h 92% 1.52 mm
06:09 11.4 °C 10.1 °C 1015.5 hPa Calm     92% 1.52 mm
06:14 11.3 °C 10.1 °C 1015.5 hPa Calm     92% 1.52 mm
06:19 11.3 °C 10.1 °C 1015.5 hPa Calm   4.8 km/h 92% 1.52 mm
06:24 11.4 °C 10.1 °C 1015.5 hPa Calm   8 km/h 92% 1.52 mm
06:29 11.3 °C 10.1 °C 1015.8 hPa Calm   4.8 km/h 92% 1.78 mm
06:34 11.2 °C 9.8 °C 1015.8 hPa NNW 3.2 km/h 9.7 km/h 91% 1.78 mm
06:39 11.1 °C 9.8 °C 1015.8 hPa Calm   14.5 km/h 92% 1.52 mm
06:44 11 °C 9.7 °C 1015.8 hPa Calm   8 km/h 92% 1.27 mm
06:49 10.9 °C 9.7 °C 1015.8 hPa Calm   3.2 km/h 92% 0.76 mm
06:54 11 °C 9.7 °C 1015.8 hPa WNW 3.2 km/h 9.7 km/h 92% 0.51 mm
06:59 10.9 °C 9.7 °C 1016.1 hPa NNW 3.2 km/h 9.7 km/h 92% 0.25 mm
07:04 10.9 °C 9.7 °C 1016.1 hPa NNW 3.2 km/h 12.9 km/h 92% 0.25 mm
07:09 10.8 °C 9.6 °C 1016.1 hPa NNW 3.2 km/h 12.9 km/h 92% 0.25 mm
07:14 10.7 °C 9.4 °C 1016.5 hPa North 3.2 km/h 11.3 km/h 92% 0.25 mm
07:19 10.6 °C 9.2 °C 1016.5 hPa Calm   9.7 km/h 91% 0.25 mm
07:24 10.6 °C 9.2 °C 1016.5 hPa NNW 4.8 km/h 9.7 km/h 91% 0.25 mm
07:29 10.5 °C 9.3 °C 1016.5 hPa North 3.2 km/h 9.7 km/h 92% 0 mm
07:34 10.5 °C 9.3 °C 1016.5 hPa North 3.2 km/h 12.9 km/h 92% 0.25 mm
07:39 10.4 °C 9.2 °C 1016.8 hPa North 3.2 km/h 12.9 km/h 92% 0.25 mm
07:44 10.3 °C 8.9 °C 1016.8 hPa North 6.4 km/h 16.1 km/h 91% 0.51 mm
07:49 10.1 °C 8.7 °C 1016.8 hPa NNW 4.8 km/h 8 km/h 91% 0.76 mm
07:54 9.9 °C 8.6 °C 1016.8 hPa Calm   12.9 km/h 91% 1.02 mm
07:59 9.8 °C 8.4 °C 1017.2 hPa NNW 3.2 km/h 6.4 km/h 91% 1.02 mm
08:04 9.7 °C 8.3 °C 1017.2 hPa NNW 3.2 km/h 14.5 km/h 91% 1.02 mm
08:09 9.6 °C 8.2 °C 1017.8 hPa NNW 6.4 km/h 14.5 km/h 91% 1.02 mm
08:14 9.5 °C 8.1 °C 1017.8 hPa NNW 4.8 km/h 12.9 km/h 91% 1.02 mm
08:19 9.5 °C 8.1 °C 1017.8 hPa NW 1.6 km/h 11.3 km/h 91% 1.27 mm
08:24 9.5 °C 8.1 °C 1017.8 hPa North 1.6 km/h 6.4 km/h 91% 1.27 mm
08:29 9.5 °C 8.1 °C 1017.8 hPa NNW 4.8 km/h 9.7 km/h 91% 1.27 mm
08:34 9.4 °C 8.1 °C 1017.8 hPa NNW 3.2 km/h 9.7 km/h 91% 1.02 mm
08:39 9.4 °C 8.1 °C 1018.2 hPa NNW 3.2 km/h 9.7 km/h 91% 1.02 mm
08:44 9.4 °C 8.1 °C 1018.2 hPa North 3.2 km/h 6.4 km/h 91% 0.76 mm
08:54 9.4 °C 8.1 °C 1018.5 hPa Calm   6.4 km/h 91% 0.25 mm
08:59 9.4 °C 8.1 °C 1018.5 hPa Calm   1.6 km/h 91% 0.25 mm
09:04 9.4 °C 8.1 °C 1018.5 hPa West 3.2 km/h 8 km/h 91% 0.25 mm
09:09 9.4 °C 8.1 °C 1018.8 hPa NW 1.6 km/h 8 km/h 91% 0.25 mm
09:14 9.4 °C 8.1 °C 1018.8 hPa NW 1.6 km/h 8 km/h 91% 0.25 mm
09:19 9.4 °C 8 °C 1018.8 hPa NW 1.6 km/h 8 km/h 91% 0 mm
09:24 9.3 °C 7.9 °C 1019.2 hPa NW 1.6 km/h 8 km/h 91% 0 mm
09:29 9.3 °C 7.9 °C 1019.2 hPa Calm   9.7 km/h 91% 0 mm
09:34 9.2 °C 7.8 °C 1018.8 hPa NW 3.2 km/h 9.7 km/h 91% 0 mm
09:39 9.3 °C 7.9 °C 1019.2 hPa NW 1.6 km/h 8 km/h 91% 0 mm
09:44 9.2 °C 7.8 °C 1019.2 hPa NW 3.2 km/h 8 km/h 91% 0 mm
09:49 9.3 °C 7.9 °C 1019.2 hPa NNW 4.8 km/h 6.4 km/h 91% 0 mm
09:54 9.4 °C 8 °C 1019.2 hPa NW 1.6 km/h 9.7 km/h 91% 0 mm
09:59 9.4 °C 8.1 °C 1019.5 hPa Calm   8 km/h 91% 0 mm
10:04 9.7 °C 8.3 °C 1019.5 hPa NW 9.7 km/h 9.7 km/h 91% 0 mm
10:09 9.6 °C 8.1 °C 1019.5 hPa NW 8 km/h 11.3 km/h 90% 0 mm
10:14 9.6 °C 8.1 °C 1019.9 hPa NW 4.8 km/h 8 km/h 90% 0 mm
10:19 9.7 °C 8.1 °C 1019.9 hPa NW 3.2 km/h 8 km/h 90% 0 mm
10:24 9.8 °C 8.3 °C 1019.9 hPa NW 3.2 km/h 8 km/h 90% 0 mm
10:29 9.8 °C 8.1 °C 1019.9 hPa NW 3.2 km/h 11.3 km/h 89% 0 mm
10:34 9.8 °C 8.1 °C 1019.9 hPa NW 4.8 km/h 12.9 km/h 89% 0 mm
10:39 9.8 °C 7.9 °C 1019.9 hPa NW 6.4 km/h 12.9 km/h 88% 0 mm
10:44 10 °C 7.9 °C 1019.9 hPa NW 3.2 km/h 12.9 km/h 87% 0 mm
10:49 10.1 °C 7.8 °C 1019.9 hPa WNW 1.6 km/h 17.7 km/h 86% 0 mm
10:54 10.4 °C 8 °C 1020.2 hPa NW 6.4 km/h 17.7 km/h 85% 0 mm
10:59 10.6 °C 7.9 °C 1020.2 hPa WNW 4.8 km/h 12.9 km/h 84% 0 mm
11:04 10.5 °C 7.7 °C 1020.2 hPa NW 4.8 km/h 11.3 km/h 83% 0 mm
11:09 10.9 °C 8.1 °C 1020.2 hPa NW 4.8 km/h 11.3 km/h 83% 0 mm
11:14 10.8 °C 7.8 °C 1020.2 hPa West 9.7 km/h 12.9 km/h 82% 0 mm
11:19 10.7 °C 7.6 °C 1020.5 hPa NW 4.8 km/h 12.9 km/h 81% 0 mm
11:24 10.6 °C 7.5 °C 1020.5 hPa NW 4.8 km/h 12.9 km/h 81% 0 mm
11:29 10.6 °C 7.4 °C 1020.5 hPa NNW 3.2 km/h 11.3 km/h 81% 0 mm
11:34 11.2 °C 7.8 °C 1020.5 hPa NW 4.8 km/h 12.9 km/h 80% 0 mm
11:39 11.4 °C 7.7 °C 1020.5 hPa WNW 12.9 km/h 14.5 km/h 78% 0 mm
11:44 11 °C 6.9 °C 1020.9 hPa WNW 4.8 km/h 17.7 km/h 76% 0 mm
11:49 10.8 °C 6.9 °C 1020.9 hPa NW 11.3 km/h 19.3 km/h 77% 0 mm
11:54 10.6 °C 6.7 °C 1020.9 hPa WNW 1.6 km/h 16.1 km/h 77% 0 mm
11:59 10.9 °C 7.1 °C 1020.9 hPa NW 4.8 km/h 16.1 km/h 77% 0 mm
12:04 11 °C 6.9 °C 1020.9 hPa NW 6.4 km/h 16.1 km/h 76% 0 mm
12:09 10.9 °C 6.6 °C 1021.2 hPa NW 8 km/h 19.3 km/h 75% 0 mm
12:14 10.9 °C 6.8 °C 1021.2 hPa NW 11.3 km/h 14.5 km/h 76% 0 mm
12:19 11 °C 6.7 °C 1021.2 hPa NW 8 km/h 12.9 km/h 75% 0 mm
12:24 10.8 °C 6.4 °C 1021.2 hPa NW 6.4 km/h 16.1 km/h 74% 0 mm
12:29 10.7 °C 6.6 °C 1021.2 hPa NW 8 km/h 17.7 km/h 76% 0 mm
12:34 10.5 °C 6.4 °C 1021.2 hPa NW 8 km/h 17.7 km/h 76% 0 mm
12:39 10.6 °C 6.1 °C 1021.2 hPa NW 4.8 km/h 17.7 km/h 74% 0 mm
12:44 11.1 °C 6.6 °C 1021.2 hPa WNW 4.8 km/h 11.3 km/h 74% 0 mm
12:49 11.2 °C 6.6 °C 1021.2 hPa WNW 6.4 km/h 11.3 km/h 73% 0 mm
12:54 11.6 °C 7.3 °C 1021.2 hPa WNW 11.3 km/h 16.1 km/h 75% 0 mm
12:59 12.1 °C 7.2 °C 1021.2 hPa WNW 6.4 km/h 12.9 km/h 72% 0 mm
13:04 11.7 °C 6.6 °C 1021.2 hPa WNW 6.4 km/h 14.5 km/h 71% 0 mm
13:09 11.4 °C 5.9 °C 1021.2 hPa NW 8 km/h 20.9 km/h 69% 0 mm
13:14 11.2 °C 6.2 °C 1021.2 hPa NW 8 km/h 20.9 km/h 71% 0 mm
13:19 10.9 °C 5.8 °C 1021.2 hPa NW 4.8 km/h 16.1 km/h 71% 0 mm
13:24 10.9 °C 6.3 °C 1021.2 hPa WNW 4.8 km/h 11.3 km/h 73% 0 mm
13:29 10.8 °C 6 °C 1021.2 hPa NNW 8 km/h 11.3 km/h 72% 0 mm
13:34 10.9 °C 6.3 °C 1021.2 hPa West 8 km/h 9.7 km/h 73% 0 mm
13:39 12.2 °C 7.1 °C 1021.6 hPa WNW 6.4 km/h 16.1 km/h 71% 0 mm
13:44 11.8 °C 6.3 °C 1021.6 hPa WNW 6.4 km/h 16.1 km/h 69% 0 mm
13:49 11.4 °C 5.5 °C 1021.6 hPa NW 6.4 km/h 14.5 km/h 67% 0 mm
13:54 11.3 °C 5.8 °C 1021.6 hPa West 16.1 km/h 17.7 km/h 69% 0 mm
13:59 11.3 °C 5.8 °C 1021.6 hPa NNW 6.4 km/h 17.7 km/h 69% 0 mm
14:04 11.3 °C 6.1 °C 1021.6 hPa NW 11.3 km/h 17.7 km/h 70% 0 mm
14:09 11.2 °C 6.3 °C 1021.9 hPa NW 6.4 km/h 19.3 km/h 72% 0 mm
14:14 10.9 °C 5.8 °C 1021.9 hPa NW 9.7 km/h 19.3 km/h 71% 0 mm
14:19 10.8 °C 5.7 °C 1021.9 hPa NW 8 km/h 19.3 km/h 71% 0 mm
14:24 11.6 °C 6.5 °C 1021.9 hPa NW 6.4 km/h 19.3 km/h 71% 0 mm
14:29 11.6 °C 5.9 °C 1022.2 hPa NW 4.8 km/h 19.3 km/h 68% 0 mm
14:34 11.4 °C 5.7 °C 1022.2 hPa West 12.9 km/h 19.3 km/h 68% 0 mm
14:39 11.6 °C 5.6 °C 1022.2 hPa WNW 11.3 km/h 25.7 km/h 67% 0 mm
14:44 11.6 °C 5.2 °C 1022.2 hPa WNW 9.7 km/h 25.7 km/h 65% 0 mm
14:49 11.2 °C 5.3 °C 1022.2 hPa NW 8 km/h 19.3 km/h 67% 0 mm
14:54 11.1 °C 5 °C 1022.2 hPa NW 8 km/h 17.7 km/h 66% 0 mm
14:59 10.9 °C 4.6 °C 1022.6 hPa WNW 6.4 km/h 20.9 km/h 65% 0 mm
15:04 11.3 °C 4.5 °C 1022.6 hPa West 6.4 km/h 17.7 km/h 63% 0 mm
15:09 11.1 °C 4.3 °C 1022.6 hPa WNW 9.7 km/h 19.3 km/h 63% 0 mm
15:14 10.8 °C 4.3 °C 1022.9 hPa NNW 8 km/h 12.9 km/h 64% 0 mm
15:19 10.7 °C 4.1 °C 1022.9 hPa NW 8 km/h 20.9 km/h 64% 0 mm
15:24 10.6 °C 3.6 °C 1022.9 hPa NW 8 km/h 20.9 km/h 62% 0 mm
15:29 11.1 °C 4.3 °C 1023.2 hPa NW 8 km/h 22.5 km/h 63% 0 mm
15:34 11.8 °C 4.5 °C 1023.2 hPa NW 8 km/h 22.5 km/h 61% 0 mm
15:39 11.9 °C 4.4 °C 1023.2 hPa North 6.4 km/h 17.7 km/h 60% 0 mm
15:44 11 °C 4.2 °C 1023.6 hPa NNW 4.8 km/h 14.5 km/h 63% 0 mm
15:49 10.6 °C 3.8 °C 1023.6 hPa NW 6.4 km/h 14.5 km/h 63% 0 mm
15:54 10.3 °C 3.6 °C 1023.6 hPa NW 6.4 km/h 17.7 km/h 63% 0 mm
15:59 10.2 °C 3.4 °C 1023.6 hPa NW 8 km/h 19.3 km/h 63% 0 mm
16:04 10.7 °C 3.9 °C 1023.6 hPa NW 3.2 km/h 16.1 km/h 63% 0 mm
16:09 10.8 °C 3.6 °C 1023.6 hPa NW 6.4 km/h 17.7 km/h 61% 0 mm
16:14 10.7 °C 3.2 °C 1023.9 hPa North 6.4 km/h 16.1 km/h 60% 0 mm
16:19 10.8 °C 3.8 °C 1023.9 hPa West 8 km/h 11.3 km/h 62% 0 mm
16:24 10.7 °C 3.4 °C 1023.9 hPa WNW 6.4 km/h 12.9 km/h 61% 0 mm
16:29 10.2 °C 3 °C 1023.9 hPa NW 4.8 km/h 12.9 km/h 61% 0 mm
16:34 9.8 °C 2.9 °C 1024.3 hPa NNW 4.8 km/h 11.3 km/h 62% 0 mm
16:39 9.8 °C 3.1 °C 1024.3 hPa NW 4.8 km/h 9.7 km/h 63% 0 mm
16:44 9.9 °C 3.2 °C 1024.3 hPa NNW 6.4 km/h 11.3 km/h 63% 0 mm
16:49 9.9 °C 3 °C 1024.3 hPa NW 8 km/h 14.5 km/h 62% 0 mm
16:54 9.8 °C 3.1 °C 1024.3 hPa NW 1.6 km/h 9.7 km/h 63% 0 mm
16:59 9.9 °C 3.2 °C 1024.3 hPa NNW 4.8 km/h 9.7 km/h 63% 0 mm
17:04 10.1 °C 3.2 °C 1024.3 hPa NW 4.8 km/h 14.5 km/h 62% 0 mm
17:09 10.2 °C 3.2 °C 1024.6 hPa NW 4.8 km/h 14.5 km/h 62% 0 mm
17:14 10.2 °C 3 °C 1024.6 hPa NW 4.8 km/h 14.5 km/h 61% 0 mm
17:19 10 °C 2.8 °C 1024.6 hPa NW 12.9 km/h 17.7 km/h 61% 0 mm
17:24 9.7 °C 2.3 °C 1024.6 hPa NW 3.2 km/h 16.1 km/h 60% 0 mm
17:29 9.4 °C 2.3 °C 1024.6 hPa WSW 4.8 km/h 12.9 km/h 61% 0 mm
17:34 9.3 °C 2.4 °C 1024.6 hPa NW 6.4 km/h 12.9 km/h 62% 0 mm
17:39 9.2 °C 2.3 °C 1024.9 hPa NNW 6.4 km/h 14.5 km/h 62% 0 mm
17:44 8.9 °C 2.3 °C 1024.6 hPa West 3.2 km/h 8 km/h 63% 0 mm
17:49 8.8 °C 2.4 °C 1024.9 hPa NW 4.8 km/h 14.5 km/h 64% 0 mm
17:54 8.8 °C 2.3 °C 1024.9 hPa NW 3.2 km/h 11.3 km/h 64% 0 mm
17:59 8.5 °C 2.3 °C 1024.9 hPa NNW 3.2 km/h 4.8 km/h 65% 0 mm
18:04 8.3 °C 2.3 °C 1024.9 hPa NNW 3.2 km/h 8 km/h 66% 0 mm
18:09 8.3 °C 2.5 °C 1025.3 hPa NNW 3.2 km/h 14.5 km/h 67% 0 mm
18:14 8.1 °C 2.6 °C 1025.3 hPa NNW 3.2 km/h 14.5 km/h 68% 0 mm
18:19 7.9 °C 2.6 °C 1025.6 hPa NNW 3.2 km/h 11.3 km/h 69% 0 mm
18:24 7.8 °C 2.5 °C 1025.3 hPa North 3.2 km/h 8 km/h 69% 0 mm
18:29 7.7 °C 2.6 °C 1025.6 hPa NNW 1.6 km/h 8 km/h 70% 0 mm
18:34 7.5 °C 2.4 °C 1025.6 hPa NNW 4.8 km/h 8 km/h 70% 0 mm
18:39 7.4 °C 2.3 °C 1026 hPa NNW 1.6 km/h 8 km/h 70% 0 mm
18:44 7.3 °C 2.2 °C 1026 hPa Calm   6.4 km/h 70% 0 mm
18:49 7.1 °C 2.2 °C 1026 hPa NW 4.8 km/h 4.8 km/h 71% 0 mm
18:54 6.9 °C 2 °C 1026 hPa NW 3.2 km/h 6.4 km/h 71% 0 mm
18:59 6.8 °C 1.9 °C 1026.3 hPa NNW 1.6 km/h 6.4 km/h 71% 0 mm
19:04 6.7 °C 1.8 °C 1026.3 hPa Calm   6.4 km/h 71% 0 mm
19:09 6.6 °C 1.7 °C 1026.3 hPa Calm   4.8 km/h 71% 0 mm
19:14 6.4 °C 1.7 °C 1026.3 hPa Calm   6.4 km/h 72% 0 mm
19:19 6.3 °C 1.6 °C 1026.6 hPa Calm   6.4 km/h 72% 0 mm
19:24 6.2 °C 1.7 °C 1026.6 hPa Calm   4.8 km/h 73% 0 mm
19:29 6.1 °C 1.6 °C 1026.3 hPa Calm   3.2 km/h 73% 0 mm
19:34 6 °C 1.5 °C 1026.3 hPa Calm   3.2 km/h 73% 0 mm
19:39 5.8 °C 1.4 °C 1026.6 hPa Calm     73% 0 mm
19:44 5.6 °C 1.3 °C 1026.6 hPa Calm     74% 0 mm
19:49 5.3 °C 1.4 °C 1026.6 hPa Calm     76% 0 mm
19:59 4.8 °C 1.1 °C 1026.6 hPa Calm     77% 0 mm
20:04 4.7 °C 1.2 °C 1026.6 hPa Calm     78% 0 mm
20:09 4.6 °C 1.2 °C 1026.6 hPa Calm     79% 0 mm
20:14 4.4 °C 1.3 °C 1026.6 hPa Calm     80% 0 mm
20:19 4.4 °C 1.2 °C 1026.6 hPa Calm     80% 0 mm
20:24 4.5 °C 1.3 °C 1027 hPa Calm     80% 0 mm
20:29 4.8 °C 1.4 °C 1027 hPa Calm   4.8 km/h 79% 0 mm
20:34 5 °C 1.5 °C 1027 hPa NW 1.6 km/h 8 km/h 78% 0 mm
20:39 5.1 °C 1.4 °C 1027 hPa NW 1.6 km/h 8 km/h 77% 0 mm
20:44 5.2 °C 1.3 °C 1027 hPa Calm   6.4 km/h 76% 0 mm
20:49 5.3 °C 1.4 °C 1027 hPa NNW 1.6 km/h 6.4 km/h 76% 0 mm
20:54 5.5 °C 1.6 °C 1027 hPa Calm   6.4 km/h 76% 0 mm
20:59 5.7 °C 1.8 °C 1027.3 hPa Calm   6.4 km/h 76% 0 mm
21:04 5.8 °C 1.9 °C 1027.3 hPa NW 1.6 km/h 4.8 km/h 76% 0 mm
21:09 5.9 °C 2.1 °C 1027 hPa Calm   3.2 km/h 76% 0 mm
21:14 6 °C 1.9 °C 1027.3 hPa Calm     75% 0 mm
21:19 6.1 °C 1.9 °C 1027.3 hPa NNW 3.2 km/h 6.4 km/h 75% 0 mm
21:24 6.1 °C 2 °C 1027.3 hPa Calm   6.4 km/h 75% 0 mm
21:29 6.1 °C 2 °C 1027.3 hPa Calm   4.8 km/h 75% 0 mm
21:34 6.1 °C 2.2 °C 1027.3 hPa Calm   3.2 km/h 76% 0 mm
21:39 6 °C 2.1 °C 1027.7 hPa Calm   1.6 km/h 76% 0 mm
21:44 5.9 °C 2 °C 1027.7 hPa Calm   3.2 km/h 76% 0 mm
21:49 5.8 °C 1.9 °C 1027.7 hPa NNW 1.6 km/h 6.4 km/h 76% 0 mm
21:54 5.8 °C 1.9 °C 1027.7 hPa NNW 1.6 km/h 6.4 km/h 76% 0 mm
21:59 5.8 °C 1.9 °C 1027.7 hPa Calm     76% 0 mm
22:04 5.6 °C 1.7 °C 1027.7 hPa Calm     76% 0 mm
22:09 5.4 °C 1.7 °C 1027.7 hPa Calm     77% 0 mm
22:14 5.3 °C 1.6 °C 1027.7 hPa Calm     77% 0 mm
22:19 5.3 °C 1.8 °C 1028 hPa Calm     78% 0 mm
22:24 5.2 °C 1.7 °C 1028 hPa Calm     78% 0 mm
22:29 5.2 °C 1.7 °C 1027.7 hPa Calm     78% 0 mm
22:34 5.3 °C 1.6 °C 1027.7 hPa Calm     77% 0 mm
22:39 5.2 °C 1.5 °C 1027.7 hPa Calm   3.2 km/h 77% 0 mm
22:44 5.1 °C 1.3 °C 1027.7 hPa Calm   3.2 km/h 77% 0 mm
22:49 5 °C 1.1 °C 1027.7 hPa Calm   3.2 km/h 76% 0 mm
22:54 4.8 °C 1.1 °C 1028 hPa Calm   1.6 km/h 77% 0 mm
22:59 4.7 °C 1.1 °C 1028 hPa Calm     77% 0 mm
23:04 4.6 °C 0.7 °C 1027.7 hPa Calm     76% 0 mm
23:09 4.4 °C 0.7 °C 1028 hPa Calm     77% 0 mm
23:24 3.9 °C 0.3 °C 1027.7 hPa Calm     77% 0 mm
23:29 3.8 °C 0.3 °C 1027.7 hPa Calm     78% 0 mm
23:34 3.7 °C 0.2 °C 1027.7 hPa Calm     78% 0 mm
23:39 3.7 °C 0.2 °C 1027.7 hPa Calm     78% 0 mm
23:44 3.4 °C -0.1 °C 1027.7 hPa Calm     78% 0 mm
23:49 3.3 °C 0 °C 1027.7 hPa Calm     79% 0 mm
23:59 2.8 °C -0.3 °C 1027.7 hPa Calm     80% 0 mm
Buffalo, New York, USA
Compliments of Weather Underground - 2.5 mb